Time;durP1;ratioP1;P1;durP2;ratioP2;P2;SDS_P1;SDS_P2;PMS_P1;PMS_P2;Temp;Humidity;BMP_temperature;BMP_pressure;BME280_temperature;BME280_humidity;BME280_pressure;Samples;Min_cycle;Max_cycle;Signal;HPM_P1;HPM_P2
2021/04/02 00:00:38;;;;;;;3.05;1.10;;;7.10;99.90;;;7.81;71.75;101697.44;5053978;28;20205;-75
2021/04/02 00:03:12;;;;;;;3.58;1.08;;;7.00;99.90;;;7.80;71.64;101695.72;5051609;28;20226;-77
2021/04/02 00:05:38;;;;;;;4.40;1.10;;;7.00;99.90;;;7.82;71.88;101699.16;5063643;28;20570;-76
2021/04/02 00:08:06;;;;;;;2.15;1.00;;;7.00;99.90;;;7.82;71.90;101694.81;5050717;28;20204;-77
2021/04/02 00:10:44;;;;;;;5.32;1.08;;;7.00;99.90;;;7.83;71.62;101706.09;5058870;28;20208;-75
2021/04/02 00:13:13;;;;;;;4.68;1.30;;;7.10;99.90;;;7.84;71.58;101702.63;5052765;28;20209;-76
2021/04/02 00:15:39;;;;;;;4.60;1.25;;;7.10;99.90;;;7.83;71.24;101698.28;5046236;28;20200;-77
2021/04/02 00:18:06;;;;;;;3.10;1.20;;;7.10;99.90;;;7.79;71.53;101700.06;5061565;28;20335;-76
2021/04/02 00:20:32;;;;;;;3.03;0.98;;;7.00;99.90;;;7.77;71.32;101695.75;5056650;28;20271;-75
2021/04/02 00:22:59;;;;;;;3.70;1.20;;;7.00;99.90;;;7.76;71.51;101696.59;5067836;28;20220;-76
2021/04/02 00:25:26;;;;;;;3.78;1.33;;;7.00;99.90;;;7.75;71.93;101708.78;5056364;28;20671;-76
2021/04/02 00:27:52;;;;;;;3.97;1.08;;;7.00;99.90;;;7.72;71.56;101705.34;5064194;28;20195;-73
2021/04/02 00:30:27;;;;;;;4.90;1.30;;;7.00;99.90;;;7.65;71.68;101708.00;5058694;28;20185;-76
2021/04/02 00:32:53;;;;;;;4.60;1.15;;;7.00;99.90;;;7.67;71.60;101709.75;5049279;28;20227;-76
2021/04/02 00:35:20;;;;;;;5.53;0.82;;;7.00;99.90;;;7.63;71.69;101712.34;5061402;28;20629;-75
2021/04/02 00:37:47;;;;;;;5.43;1.05;;;6.90;99.90;;;7.57;71.47;101714.16;5054626;28;20266;-75
2021/04/02 00:40:19;;;;;;;5.80;1.70;;;6.90;99.90;;;7.44;71.62;101709.94;5054973;28;20205;-73
2021/04/02 00:42:48;;;;;;;4.43;1.23;;;6.80;99.90;;;7.38;71.36;101723.84;5062285;28;20221;-76
2021/04/02 00:45:17;;;;;;;5.15;1.02;;;6.70;99.90;;;7.36;71.89;101715.22;5055498;28;20581;-76
2021/04/02 00:47:45;;;;;;;7.90;1.23;;;6.70;99.90;;;7.40;71.54;101719.50;5050827;28;20207;-76
2021/04/02 00:50:16;;;;;;;5.55;1.15;;;6.70;99.90;;;7.45;71.45;101720.34;5054782;28;20219;-75
2021/04/02 00:52:43;;;;;;;7.10;1.40;;;6.70;99.90;;;7.41;71.19;101723.00;5052691;28;20737;-76
2021/04/02 00:55:12;;;;;;;5.40;1.42;;;6.70;99.90;;;7.33;71.34;101720.44;5057965;28;20313;-77
2021/04/02 00:57:38;;;;;;;4.65;1.30;;;6.60;99.90;;;7.35;71.23;101730.88;5059044;28;20209;-76
2021/04/02 01:00:09;;;;;;;5.93;1.42;;;6.60;99.90;;;7.32;71.29;101730.84;5059193;28;20224;-75
2021/04/02 01:02:36;;;;;;;3.25;1.30;;;6.60;99.90;;;7.28;71.49;101732.63;5052091;28;20224;-77
2021/04/02 01:05:11;;;;;;;4.40;1.30;;;6.50;99.90;;;7.24;71.36;101735.28;5050636;28;20196;-75
2021/04/02 01:07:37;;;;;;;7.82;1.52;;;6.50;99.90;;;7.22;71.45;101732.69;5062380;28;20606;-75
2021/04/02 01:10:10;;;;;;;3.20;1.17;;;6.50;99.90;;;7.17;71.20;101731.84;5061744;28;20207;-74
2021/04/02 01:12:36;;;;;;;2.95;1.20;;;6.40;99.90;;;7.13;71.26;101731.91;5049666;28;20295;-77
2021/04/02 01:15:14;;;;;;;4.32;1.40;;;6.40;99.90;;;7.09;71.59;101731.03;5061165;28;20200;-76
2021/04/02 01:17:50;;;;;;;4.93;1.33;;;6.30;99.90;;;7.08;71.50;101733.66;5049307;28;20643;-77
2021/04/02 01:20:20;;;;;;;6.18;1.40;;;6.30;99.90;;;7.09;72.06;101727.56;5063922;28;20184;-75
2021/04/02 01:22:51;;;;;;;5.50;1.58;;;6.30;99.90;;;7.07;71.70;101732.78;5051818;28;20251;-77
2021/04/02 01:25:28;;;;;;;3.35;1.30;;;6.30;99.90;;;7.05;71.79;101726.72;5055217;28;20198;-76
2021/04/02 01:28:49;;;;;;;3.97;1.10;;;6.30;99.90;;;7.04;71.78;101734.53;5071989;28;20253;-76
2021/04/02 01:31:17;;;;;;;5.18;1.33;;;6.20;99.90;;;7.01;71.90;101731.97;5066728;28;20216;-76
2021/04/02 01:33:45;;;;;;;4.10;1.17;;;6.20;99.90;;;6.95;72.07;101722.47;5055535;28;20588;-75
2021/04/02 01:36:13;;;;;;;5.22;1.40;;;6.20;99.90;;;6.93;72.10;101736.38;5063848;28;20192;-75
2021/04/02 01:38:43;;;;;;;5.00;1.63;;;6.20;99.90;;;6.83;72.23;101727.72;5062546;28;20274;-77
2021/04/02 01:41:13;;;;;;;5.75;1.30;;;6.10;99.90;;;6.82;72.57;101735.53;5061548;28;20223;-76
2021/04/02 01:43:45;;;;;;;5.10;1.40;;;6.10;99.90;;;6.80;72.78;101743.34;5058846;28;20475;-75
2021/04/02 01:46:16;;;;;;;7.15;1.60;;;6.10;99.90;;;6.81;72.84;101739.03;5066771;28;20199;-76
2021/04/02 01:48:46;;;;;;;7.40;1.73;;;6.00;99.90;;;6.80;72.92;101737.31;5055985;28;20192;-76
2021/04/02 01:51:14;;;;;;;4.97;1.50;;;6.00;99.90;;;6.80;72.41;101732.97;5062422;28;20215;-77
2021/04/02 01:53:48;;;;;;;5.38;1.38;;;6.00;99.90;;;6.69;72.74;101739.97;5065041;28;20204;-76
2021/04/02 01:56:19;;;;;;;6.85;1.88;;;5.90;99.90;;;6.53;73.16;101738.28;5056258;28;20203;-76
2021/04/02 01:58:49;;;;;;;4.13;1.55;;;5.80;99.90;;;6.46;73.46;101739.22;5073082;28;20244;-77
2021/04/02 02:01:21;;;;;;;5.70;1.33;;;5.70;99.90;;;6.41;73.84;101738.38;5078431;28;20283;-76
2021/04/02 02:03:51;;;;;;;5.85;2.30;;;5.60;99.90;;;6.36;74.27;101743.56;5056846;28;20578;-76
2021/04/02 02:06:20;;;;;;;6.10;1.55;;;5.60;99.90;;;6.42;74.13;101750.47;5050638;28;20617;-77
2021/04/02 02:09:12;;;;;;;4.97;1.67;;;5.60;99.90;;;6.44;74.26;101751.34;5065426;28;20242;-76
2021/04/02 02:11:41;;;;;;;8.38;1.73;;;5.60;99.90;;;6.46;73.98;101744.41;5075105;28;20254;-76
2021/04/02 02:14:13;;;;;;;5.28;1.92;;;5.60;99.90;;;6.47;73.71;101748.72;5073721;28;20246;-75
2021/04/02 02:16:53;;;;;;;9.98;2.15;;;5.60;99.90;;;6.48;74.08;101744.41;5066566;28;20211;-76
2021/04/02 02:19:25;;;;;;;4.15;1.70;;;5.70;99.90;;;6.45;73.97;101744.44;5057276;28;20760;-77
2021/04/02 02:21:57;;;;;;;6.13;1.45;;;5.60;99.90;;;6.40;73.87;101749.63;5047282;28;20224;-76
2021/04/02 02:24:29;;;;;;;9.32;1.70;;;5.60;99.90;;;6.38;73.87;101757.44;5050799;28;20203;-76
2021/04/02 02:26:58;;;;;;;5.28;1.80;;;5.60;99.90;;;6.35;73.76;101753.97;5053182;28;20680;-78
2021/04/02 02:29:25;;;;;;;6.80;1.60;;;5.60;99.90;;;6.31;74.11;101747.06;5050774;28;20192;-76
2021/04/02 02:31:54;;;;;;;7.38;1.90;;;5.50;99.90;;;6.27;74.16;101746.22;5064879;28;20220;-76
2021/04/02 02:34:28;;;;;;;5.07;1.90;;;5.50;99.90;;;6.19;73.89;101747.09;5054945;28;20668;-75
2021/04/02 02:36:56;;;;;;;5.85;1.98;;;5.40;99.90;;;6.17;74.66;101751.44;5054005;28;20205;-77
2021/04/02 02:39:23;;;;;;;10.10;1.92;;;5.40;99.90;;;6.15;74.37;101754.03;5052825;28;20215;-75
2021/04/02 02:41:54;;;;;;;8.25;2.00;;;5.40;99.90;;;6.06;74.45;101756.66;5052428;28;20211;-76
2021/04/02 02:44:23;;;;;;;6.53;1.90;;;5.30;99.90;;;6.01;74.61;101757.56;5076518;28;20276;-75
2021/04/02 02:46:50;;;;;;;6.78;2.30;;;5.30;99.90;;;6.01;74.63;101745.41;5063864;28;20276;-76
2021/04/02 02:49:20;;;;;;;7.50;2.17;;;5.30;99.90;;;6.03;74.93;101753.19;5058628;28;20232;-77
2021/04/02 02:51:58;;;;;;;7.20;2.20;;;5.30;99.90;;;6.06;74.91;101745.41;5062347;28;20211;-76
2021/04/02 02:54:31;;;;;;;8.18;2.10;;;5.30;99.90;;;6.06;74.90;101766.19;5052753;28;20211;-77
2021/04/02 02:57:02;;;;;;;7.88;2.13;;;5.30;99.90;;;6.11;74.86;101756.66;5053772;28;20307;-76
2021/04/02 02:59:33;;;;;;;6.47;2.10;;;5.30;99.90;;;6.14;74.69;101748.84;5058344;28;20277;-76
2021/04/02 03:02:06;;;;;;;8.30;2.80;;;5.30;99.90;;;6.12;74.27;101753.19;5069062;28;20215;-76
2021/04/02 03:04:37;;;;;;;7.65;1.95;;;5.30;99.90;;;6.14;74.48;101744.53;5052256;28;20197;-76
2021/04/02 03:07:08;;;;;;;8.77;2.20;;;5.30;99.90;;;6.15;74.46;101746.25;5051052;28;20204;-76
2021/04/02 03:09:40;;;;;;;6.65;1.90;;;5.30;99.90;;;6.10;74.34;101735.00;5058802;28;20219;-75
2021/04/02 03:12:11;;;;;;;10.35;2.03;;;5.20;99.90;;;6.04;74.13;101744.56;5079723;28;20209;-75
2021/04/02 03:14:44;;;;;;;9.57;2.30;;;5.20;99.90;;;6.00;74.53;101740.22;5075702;28;20172;-75
2021/04/02 03:17:12;;;;;;;6.90;2.08;;;5.10;99.90;;;5.97;74.93;101735.91;5079965;28;20199;-75
2021/04/02 03:19:44;;;;;;;5.32;1.90;;;5.10;99.90;;;5.97;74.80;101750.63;5096380;28;20204;-76
2021/04/02 03:22:19;;;;;;;6.03;2.00;;;5.20;99.90;;;5.96;74.78;101741.97;5095968;28;20206;-75
2021/04/02 03:24:58;;;;;;;10.93;2.53;;;5.20;99.90;;;5.91;75.02;101745.47;5091353;28;20216;-76
2021/04/02 03:27:34;;;;;;;9.75;2.30;;;5.10;99.90;;;5.75;75.13;101736.78;5076794;28;20176;-76
2021/04/02 03:30:01;;;;;;;8.00;2.63;;;5.00;99.90;;;5.74;75.13;101741.97;5084920;28;20168;-77
2021/04/02 03:32:30;;;;;;;7.43;2.28;;;4.90;99.90;;;5.74;75.12;101732.47;5076553;28;20193;-77
2021/04/02 03:35:04;;;;;;;5.35;2.10;;;4.90;99.90;;;5.75;75.09;101730.72;5068299;28;20205;-77
2021/04/02 03:37:35;;;;;;;8.02;2.13;;;4.90;99.90;;;5.76;75.43;101722.06;5072977;28;20208;-76
2021/04/02 03:40:12;;;;;;;9.48;2.35;;;4.90;99.90;;;5.75;75.31;101718.59;5047908;28;20596;-75
2021/04/02 03:42:40;;;;;;;8.00;2.03;;;4.80;99.90;;;5.74;75.35;101708.22;5064260;28;20243;-75
2021/04/02 03:45:14;;;;;;;9.68;2.75;;;4.80;99.90;;;5.73;75.29;101727.25;5058603;28;20271;-76
2021/04/02 03:47:47;;;;;;;8.57;2.37;;;4.80;99.90;;;5.72;75.21;101725.53;5055999;28;20711;-76
2021/04/02 03:50:19;;;;;;;7.30;2.38;;;4.80;99.90;;;5.71;75.27;101726.41;5074053;28;20225;-75
2021/04/02 03:53:06;;;;;;;7.78;2.35;;;4.70;99.90;;;5.64;75.65;101729.88;5058353;28;20650;-76
2021/04/02 03:55:35;;;;;;;10.23;2.80;;;4.70;99.90;;;5.60;75.55;101730.72;5052563;28;20197;-76
2021/04/02 03:58:04;;;;;;;6.43;2.15;;;4.70;99.90;;;5.59;75.69;101723.81;5054207;28;20201;-76
2021/04/02 04:00:39;;;;;;;6.53;2.38;;;4.70;99.90;;;5.61;76.14;101724.69;5054276;28;20191;-76
2021/04/02 04:03:15;;;;;;;13.13;5.15;;;4.70;99.90;;;5.63;75.86;101726.41;5052087;28;20184;-76
2021/04/02 04:05:45;;;;;;;8.55;3.05;;;4.70;99.90;;;5.62;75.73;101722.09;5058608;28;20568;-76
2021/04/02 04:08:15;;;;;;;9.70;3.37;;;4.60;99.90;;;5.62;76.03;101716.03;5064615;28;20184;-76
2021/04/02 04:10:45;;;;;;;10.30;2.97;;;4.60;99.90;;;5.57;76.19;101716.03;5061694;28;20594;-76
2021/04/02 04:13:17;;;;;;;8.70;3.10;;;4.60;99.90;;;5.53;76.11;101710.84;5061678;28;20588;-76
2021/04/02 04:15:48;;;;;;;9.57;2.60;;;4.60;99.90;;;5.51;76.65;101715.19;5062522;28;20201;-76
2021/04/02 04:18:20;;;;;;;8.88;2.47;;;4.70;99.90;;;5.47;76.48;101716.91;5049207;28;20309;-75
2021/04/02 04:20:53;;;;;;;9.38;2.60;;;4.60;99.90;;;5.45;76.80;101713.44;5061434;28;20720;-76
2021/04/02 04:23:23;;;;;;;7.95;2.45;;;4.60;99.90;;;5.44;76.74;101710.88;5053822;28;20223;-76
2021/04/02 04:25:58;;;;;;;11.00;2.80;;;4.50;99.90;;;5.42;76.64;101710.00;5051838;28;20189;-76
2021/04/02 04:28:27;;;;;;;8.17;2.80;;;4.50;99.90;;;5.40;76.99;101707.41;5052133;28;20715;-76
2021/04/02 04:31:01;;;;;;;9.88;2.60;;;4.50;99.90;;;5.40;77.29;101714.31;5074046;28;20267;-76
2021/04/02 04:33:29;;;;;;;8.88;2.97;;;4.50;99.90;;;5.41;77.25;101721.25;5067428;28;20196;-76
2021/04/02 04:36:00;;;;;;;8.70;2.40;;;4.50;99.90;;;5.41;77.28;101714.31;5058276;28;20196;-76
2021/04/02 04:38:29;;;;;;;8.40;2.53;;;4.50;99.90;;;5.44;77.36;101721.25;5047470;28;20706;-76
2021/04/02 04:40:57;;;;;;;9.85;2.83;;;4.50;99.90;;;5.42;77.45;101717.78;5051267;28;20275;-76
2021/04/02 04:43:26;;;;;;;10.25;2.53;;;4.50;99.90;;;5.39;77.91;101716.06;5064021;28;20363;-76
2021/04/02 04:45:53;;;;;;;7.00;2.33;;;4.50;99.90;;;5.39;77.89;101712.59;5058134;28;20284;-76
2021/04/02 04:48:20;;;;;;;7.40;2.60;;;4.50;99.90;;;5.39;77.62;101713.47;5063105;28;20195;-76
2021/04/02 04:50:47;;;;;;;7.25;2.40;;;4.50;99.90;;;5.37;77.75;101706.53;5057875;28;20203;-75
2021/04/02 04:53:21;;;;;;;8.70;2.40;;;4.50;99.90;;;5.39;77.82;101712.59;5050140;28;20668;-75
2021/04/02 04:55:50;;;;;;;8.47;2.17;;;4.50;99.90;;;5.36;78.04;101717.78;5052026;28;20645;-76
2021/04/02 04:58:22;;;;;;;10.60;2.60;;;4.50;99.90;;;5.35;77.79;101706.53;5061847;28;20295;-75
2021/04/02 05:00:55;;;;;;;7.72;2.67;;;4.50;99.90;;;5.35;77.91;101714.31;5062108;28;20203;-76
2021/04/02 05:03:25;;;;;;;7.45;2.78;;;4.60;99.90;;;5.30;78.00;101720.38;5055411;28;20196;-76
2021/04/02 05:05:56;;;;;;;10.07;3.00;;;4.50;99.90;;;5.23;78.24;101729.00;5062011;28;20199;-76
2021/04/02 05:08:31;;;;;;;11.13;3.33;;;4.50;99.90;;;5.23;78.47;101735.06;5053937;28;20280;-76
2021/04/02 05:11:00;;;;;;;8.90;2.70;;;4.50;99.90;;;5.25;78.68;101740.25;5058025;28;20298;-76
2021/04/02 05:13:32;;;;;;;8.70;2.80;;;4.50;99.90;;;5.20;78.26;101741.97;5044725;28;20196;-76
2021/04/02 05:16:00;;;;;;;10.20;3.17;;;4.40;99.90;;;5.19;78.55;101738.53;5061433;28;20193;-76
2021/04/02 05:18:29;;;;;;;9.53;2.90;;;4.50;99.90;;;5.21;78.59;101743.72;5060842;28;20209;-76
2021/04/02 05:20:55;;;;;;;9.20;2.90;;;4.50;99.90;;;5.20;78.85;101744.56;5052918;28;20563;-77
2021/04/02 05:23:22;;;;;;;9.63;2.97;;;4.50;99.90;;;5.17;78.86;101747.16;5052527;28;20242;-76
2021/04/02 05:25:49;;;;;;;8.80;3.00;;;4.50;99.90;;;5.13;78.95;101746.31;5066931;28;20278;-76
2021/04/02 05:28:16;;;;;;;10.43;3.40;;;4.50;99.90;;;5.10;79.54;101744.59;5041941;28;20742;-75
2021/04/02 05:30:43;;;;;;;10.63;3.38;;;4.50;99.90;;;5.16;79.64;101738.50;5055411;28;20288;-76
2021/04/02 05:33:10;;;;;;;10.23;3.23;;;4.60;99.90;;;5.17;79.61;101748.03;5061475;28;20220;-75
2021/04/02 05:35:37;;;;;;;12.82;3.80;;;4.60;99.90;;;5.20;79.76;101750.63;5063869;28;20192;-77
2021/04/02 05:38:04;;;;;;;10.30;3.50;;;4.60;99.90;;;5.28;80.22;101750.63;5066843;28;20279;-76
2021/04/02 05:40:30;;;;;;;13.45;3.58;;;4.70;99.90;;;5.31;79.72;101746.31;5060972;28;20224;-76
2021/04/02 05:43:09;;;;;;;13.48;4.05;;;4.70;99.90;;;5.32;80.11;101752.38;5051701;28;20307;-76
2021/04/02 05:45:38;;;;;;;11.20;3.63;;;4.70;99.90;;;5.25;79.93;101751.50;5050648;28;20211;-77
2021/04/02 05:48:07;;;;;;;11.23;4.20;;;4.70;99.90;;;5.22;80.45;101753.22;5060755;28;20203;-76
2021/04/02 05:50:36;;;;;;;12.00;3.60;;;4.70;99.90;;;5.26;80.49;101754.97;5051914;28;20226;-75
2021/04/02 05:53:05;;;;;;;15.27;4.43;;;4.70;99.90;;;5.28;80.35;101761.88;5051333;28;20201;-75
2021/04/02 05:55:36;;;;;;;11.40;3.90;;;4.70;99.90;;;5.33;80.47;101764.47;5059309;28;20200;-76
2021/04/02 05:58:06;;;;;;;10.80;4.18;;;4.80;99.90;;;5.39;80.61;101774.88;5049596;28;20224;-76
2021/04/02 06:00:32;;;;;;;11.88;3.80;;;4.80;99.90;;;5.39;80.38;101765.38;5056211;28;20380;-76
2021/04/02 06:02:59;;;;;;;12.20;3.83;;;4.80;99.90;;;5.37;80.34;101761.91;5054405;28;20248;-76
2021/04/02 06:05:26;;;;;;;12.60;3.75;;;4.80;99.90;;;5.37;80.31;101768.81;5045921;28;20201;-76
2021/04/02 06:07:54;;;;;;;12.13;4.00;;;4.80;99.90;;;5.30;80.42;101764.47;5057393;28;20192;-75
2021/04/02 06:10:21;;;;;;;13.60;4.18;;;4.80;99.90;;;5.30;80.74;101760.16;5051710;28;20200;-76
2021/04/02 06:12:47;;;;;;;12.98;4.50;;;4.80;99.90;;;5.33;80.61;101754.97;5062493;28;20208;-76
2021/04/02 06:15:18;;;;;;;14.35;4.90;;;4.90;99.90;;;5.33;80.64;101759.28;5054140;28;20660;-75
2021/04/02 06:18:05;;;;;;;12.10;4.47;;;4.90;99.90;;;5.41;81.05;101749.78;5064230;28;20210;-76
2021/04/02 06:20:36;;;;;;;15.80;4.95;;;5.00;99.90;;;5.53;81.01;101744.56;5065007;28;20247;-76
2021/04/02 06:23:15;;;;;;;11.00;4.15;;;5.10;99.90;;;5.58;80.88;101735.94;5057980;28;20195;-77
2021/04/02 06:25:49;;;;;;;13.60;4.72;;;5.10;99.90;;;5.67;81.15;101735.06;5050695;28;20196;-76
2021/04/02 06:28:21;;;;;;;13.30;4.60;;;5.30;99.90;;;5.71;80.55;101735.03;5059164;28;20197;-74
2021/04/02 06:30:58;;;;;;;12.35;4.43;;;5.30;99.90;;;5.75;80.60;101720.31;5052018;28;20554;-76
2021/04/02 06:33:32;;;;;;;16.00;4.97;;;5.40;99.90;;;5.85;80.55;101714.28;5058453;28;20192;-77
2021/04/02 06:35:59;;;;;;;18.15;5.05;;;5.60;99.90;;;5.95;80.74;101713.41;5062394;28;20541;-76
2021/04/02 06:38:42;;;;;;;19.38;6.60;;;5.60;99.90;;;5.94;80.31;101711.69;5063867;28;20208;-74
2021/04/02 06:41:10;;;;;;;13.48;5.30;;;5.70;99.90;;;5.85;79.98;101711.69;5066169;28;20625;-77
2021/04/02 06:43:41;;;;;;;14.90;5.60;;;5.60;99.90;;;5.78;80.20;101715.13;5052296;28;20202;-76
2021/04/02 06:46:10;;;;;;;17.13;6.07;;;5.60;99.90;;;5.73;80.33;101729.84;5061385;28;20274;-76
2021/04/02 06:48:37;;;;;;;17.52;5.90;;;5.60;99.90;;;5.71;80.75;101731.59;5072148;28;20267;-76
2021/04/02 06:51:11;;;;;;;25.63;9.43;;;5.60;99.90;;;5.76;80.88;101735.06;5060236;28;20307;-75
2021/04/02 06:53:40;;;;;;;16.20;6.18;;;5.60;99.90;;;5.80;80.91;101736.75;5050289;28;20641;-76
2021/04/02 06:56:10;;;;;;;16.40;6.50;;;5.60;99.90;;;5.76;80.69;101745.44;5048624;28;20220;-76
2021/04/02 06:58:39;;;;;;;24.63;10.88;;;5.50;99.90;;;5.71;80.59;101744.59;5047458;28;20217;-76
2021/04/02 07:01:08;;;;;;;26.02;10.85;;;5.50;99.90;;;5.70;80.90;101741.13;5058551;28;20219;-76
2021/04/02 07:03:36;;;;;;;18.50;7.63;;;5.50;99.90;;;5.79;81.00;101746.31;5059165;28;20267;-76
2021/04/02 07:06:05;;;;;;;18.67;6.82;;;5.60;99.90;;;5.81;80.77;101751.50;5058455;28;20223;-77
2021/04/02 07:08:34;;;;;;;16.13;6.50;;;5.60;99.90;;;5.80;80.96;101747.16;5064744;28;20192;-76
2021/04/02 07:11:01;;;;;;;16.73;5.95;;;5.60;99.90;;;5.72;80.56;101754.09;5056448;28;20773;-77
2021/04/02 07:13:34;;;;;;;17.75;6.25;;;5.50;99.90;;;5.59;80.60;101753.25;5054748;28;20188;-77
2021/04/02 07:16:03;;;;;;;15.93;5.93;;;5.40;99.90;;;5.53;81.11;101757.56;5065694;28;20189;-76
2021/04/02 07:18:30;;;;;;;16.60;5.32;;;5.40;99.90;;;5.54;81.28;101757.59;5055956;28;20204;-77
2021/04/02 07:20:57;;;;;;;17.58;6.28;;;5.40;99.90;;;5.62;81.37;101752.38;5062344;28;20207;-76
2021/04/02 07:23:27;;;;;;;13.90;5.55;;;5.50;99.90;;;5.75;81.56;101756.69;5072380;28;20674;-76
2021/04/02 07:25:55;;;;;;;13.65;5.47;;;5.60;99.90;;;5.87;81.30;101754.09;5056006;28;20649;-76
2021/04/02 07:28:24;;;;;;;15.55;5.50;;;5.70;99.90;;;5.95;81.15;101747.16;5045088;28;20193;-75
2021/04/02 07:30:54;;;;;;;11.68;4.40;;;5.80;99.90;;;6.09;80.95;101742.81;5049054;28;20221;-76
2021/04/02 07:33:21;;;;;;;12.07;4.65;;;5.90;99.90;;;6.20;80.64;101748.81;5067452;28;20190;-75
2021/04/02 07:35:57;;;;;;;12.68;5.05;;;6.00;99.90;;;6.27;79.70;101738.41;5066299;28;20202;-73
2021/04/02 07:38:30;;;;;;;11.77;4.40;;;6.10;99.90;;;6.36;79.47;101746.16;5058307;28;20212;-75
2021/04/02 07:40:57;;;;;;;13.07;5.38;;;6.20;99.90;;;6.47;79.44;101743.53;5064712;28;20188;-76
2021/04/02 07:43:31;;;;;;;12.40;4.70;;;6.30;99.90;;;6.45;78.58;101739.22;5062471;28;20196;-76
2021/04/02 07:46:01;;;;;;;11.52;4.20;;;6.40;99.90;;;6.44;78.92;101743.56;5072050;28;20227;-76
2021/04/02 07:48:28;;;;;;;10.50;4.35;;;6.40;99.90;;;6.48;78.62;101744.41;5048214;28;20200;-76
2021/04/02 07:51:00;;;;;;;14.20;4.05;;;6.50;99.90;;;6.54;78.59;101746.97;5052415;28;20197;-76
2021/04/02 07:53:46;;;;;;;12.48;4.22;;;6.50;99.90;;;6.64;78.48;101748.66;5053647;28;20232;-75
2021/04/02 07:56:16;;;;;;;15.27;4.72;;;6.60;99.90;;;6.67;78.09;101749.50;5061607;28;20180;-74
2021/04/02 07:58:48;;;;;;;13.85;5.07;;;6.70;99.90;;;6.59;77.61;101748.69;5050649;28;20746;-76
2021/04/02 08:01:18;;;;;;;11.60;3.95;;;6.60;99.90;;;6.52;78.13;101748.69;5055823;28;20212;-75
2021/04/02 08:03:47;;;;;;;13.05;4.80;;;6.60;99.90;;;6.57;78.07;101753.03;5065457;28;20203;-76
2021/04/02 08:06:32;;;;;;;11.40;4.32;;;6.60;99.90;;;6.63;78.17;101746.94;5065501;28;20195;-76
2021/04/02 08:09:00;;;;;;;10.07;3.95;;;6.70;99.90;;;6.66;77.94;101750.38;5052773;28;20536;-75
2021/04/02 08:11:31;;;;;;;11.32;4.53;;;6.70;99.90;;;6.70;77.55;101754.69;5060329;28;20216;-75
2021/04/02 08:14:00;;;;;;;12.27;4.72;;;6.70;99.90;;;6.80;77.59;101753.75;5064342;28;20189;-75
2021/04/02 08:16:39;;;;;;;12.75;4.40;;;6.80;99.90;;;7.00;76.91;101754.50;5053300;28;20279;-76
2021/04/02 08:19:09;;;;;;;12.57;4.15;;;7.00;99.90;;;7.01;76.58;101756.25;5059830;28;20208;-78
2021/04/02 08:21:41;;;;;;;9.80;3.85;;;7.10;99.90;;;7.01;76.57;101740.66;5051404;28;20266;-77
2021/04/02 08:24:11;;;;;;;11.38;4.07;;;7.10;99.90;;;7.13;76.64;101743.13;5049373;28;20189;-78
2021/04/02 08:26:40;;;;;;;9.13;3.58;;;7.30;99.90;;;7.18;76.21;101749.19;5057944;28;20173;-73
2021/04/02 08:29:09;;;;;;;10.73;4.03;;;7.40;99.90;;;7.26;76.21;101739.59;5072457;28;20200;-79
2021/04/02 08:31:39;;;;;;;10.02;3.78;;;7.50;99.90;;;7.37;75.39;101745.56;5066972;28;20277;-73
2021/04/02 08:34:05;;;;;;;8.57;3.42;;;7.50;99.90;;;7.35;75.35;101739.50;5070628;28;20200;-74
2021/04/02 08:36:32;;;;;;;9.88;4.00;;;7.50;99.90;;;7.35;75.28;101734.31;5071111;28;20196;-75
2021/04/02 08:39:00;;;;;;;9.10;3.67;;;7.50;99.90;;;7.41;75.07;101729.06;5075318;28;20205;-77
2021/04/02 08:41:30;;;;;;;10.43;4.07;;;7.50;99.90;;;7.35;74.60;101731.69;5069672;28;20220;-77
2021/04/02 08:43:58;;;;;;;10.40;3.97;;;7.40;99.90;;;7.36;74.99;101732.56;5072169;28;20204;-77
2021/04/02 08:46:38;;;;;;;11.98;4.20;;;7.50;99.90;;;7.49;74.91;101726.38;5068169;28;20220;-76
2021/04/02 08:49:07;;;;;;;11.35;4.60;;;7.60;99.90;;;7.67;74.10;101733.19;5063040;28;20216;-74
2021/04/02 08:51:34;;;;;;;11.48;4.25;;;7.70;99.90;;;7.79;73.76;101725.25;5051638;28;20209;-75
2021/04/02 08:54:03;;;;;;;11.25;4.63;;;7.80;99.90;;;7.84;73.34;101720.88;5054694;28;20751;-78
2021/04/02 08:56:32;;;;;;;11.52;4.15;;;7.80;99.90;;;7.75;73.53;101724.44;5054111;28;20200;-78
2021/04/02 08:59:06;;;;;;;10.48;3.80;;;7.80;99.90;;;7.75;73.25;101710.53;5055140;28;20271;-79
2021/04/02 09:01:36;;;;;;;12.32;4.50;;;7.80;99.90;;;7.80;73.27;101700.94;5053371;28;20278;-77
2021/04/02 09:04:03;;;;;;;10.20;3.88;;;7.80;99.90;;;7.84;73.31;101695.66;5048962;28;20189;-75
2021/04/02 09:06:29;;;;;;;10.30;3.88;;;7.90;99.90;;;7.84;73.13;101694.81;5051709;28;20339;-76
2021/04/02 09:08:56;;;;;;;10.63;4.00;;;7.90;99.90;;;7.84;72.75;101700.03;5049776;28;20201;-81
2021/04/02 09:11:23;;;;;;;10.13;4.18;;;7.90;99.90;;;7.84;73.03;101687.00;5042861;28;20213;-78
2021/04/02 09:13:53;;;;;;;10.48;4.03;;;7.90;99.90;;;7.84;73.18;101698.25;5044602;28;20203;-78
2021/04/02 09:16:21;;;;;;;10.45;4.35;;;7.90;99.90;;;7.95;73.01;101695.56;5044564;28;20289;-76
2021/04/02 09:18:51;;;;;;;10.13;4.30;;;8.00;99.90;;;8.06;72.43;101691.06;5044846;28;20286;-77
2021/04/02 09:21:20;;;;;;;10.95;4.75;;;8.00;99.90;;;8.17;71.96;101679.63;5042868;28;20227;-76
2021/04/02 09:23:49;;;;;;;13.82;5.25;;;8.10;99.90;;;8.28;71.76;101680.41;5044633;28;20193;-75
2021/04/02 09:26:16;;;;;;;10.55;4.70;;;8.20;99.90;;;8.34;71.51;101674.28;5043336;28;20197;-74
2021/04/02 09:28:45;;;;;;;19.85;6.97;;;8.30;99.90;;;8.38;71.52;101678.53;5044737;28;20193;-76
2021/04/02 09:31:21;;;;;;;9.65;4.18;;;8.30;99.90;;;8.34;71.43;101675.09;5037521;28;20304;-76
2021/04/02 09:33:51;;;;;;;11.23;3.70;;;8.30;99.90;;;8.31;71.07;101680.38;5059164;28;20196;-77
2021/04/02 09:36:19;;;;;;;10.43;4.68;;;8.30;99.90;;;8.36;70.88;101685.50;5046126;28;20181;-74
2021/04/02 09:38:47;;;;;;;11.48;4.22;;;8.30;99.90;;;8.46;70.37;101668.88;5045147;28;20281;-78
2021/04/02 09:41:21;;;;;;;12.13;4.20;;;8.40;99.90;;;8.63;70.27;101664.28;5036502;28;20213;-76
2021/04/02 09:43:52;;;;;;;10.30;3.90;;;8.60;99.90;;;8.77;69.56;101670.19;5049917;28;20188;-76
2021/04/02 09:46:30;;;;;;;9.88;4.32;;;8.70;99.90;;;8.77;69.33;101665.78;5065535;28;20192;-77
2021/04/02 09:49:04;;;;;;;10.80;3.90;;;8.70;99.90;;;8.89;69.57;101662.16;5044269;28;20209;-76
2021/04/02 09:51:33;;;;;;;9.65;3.83;;;8.80;99.90;;;8.97;69.18;101646.38;5039698;28;20307;-76
2021/04/02 09:53:59;;;;;;;10.68;4.15;;;8.90;99.90;;;9.09;68.91;101640.97;5063302;28;20209;-75
2021/04/02 09:56:26;;;;;;;9.82;3.70;;;9.00;99.90;;;9.18;68.46;101649.50;5048630;28;20220;-77
2021/04/02 09:58:54;;;;;;;8.00;3.05;;;9.10;99.90;;;9.17;68.12;101647.78;5051393;28;20213;-79
2021/04/02 10:01:21;;;;;;;11.82;3.33;;;9.20;99.90;;;9.17;67.45;101639.94;5037585;28;20228;-78
2021/04/02 10:03:47;;;;;;;8.35;3.53;;;9.20;99.90;;;9.20;67.52;101631.19;5036245;28;20304;-77
2021/04/02 10:06:14;;;;;;;9.25;3.22;;;9.20;99.90;;;9.26;66.95;101613.66;5042555;28;20288;-77
2021/04/02 10:08:40;;;;;;;9.40;3.28;;;9.30;99.90;;;9.34;67.01;101614.41;5041914;28;20960;-77
2021/04/02 10:11:06;;;;;;;8.60;3.03;;;9.40;99.90;;;9.42;66.10;101609.03;5039857;28;20287;-78
2021/04/02 10:13:33;;;;;;;7.28;2.70;;;9.40;99.90;;;9.52;65.98;101613.19;5043869;28;20199;-77
2021/04/02 10:16:01;;;;;;;10.90;3.22;;;9.50;99.90;;;9.58;65.32;101606.09;5043187;28;20286;-75
2021/04/02 10:18:28;;;;;;;7.47;2.60;;;9.60;99.90;;;9.64;65.06;101606.00;5041608;28;20262;-77
2021/04/02 10:20:55;;;;;;;6.97;2.33;;;9.60;99.90;;;9.67;64.66;101611.16;5041686;28;20193;-76
2021/04/02 10:23:21;;;;;;;7.43;2.60;;;9.60;99.90;;;9.68;64.19;101596.31;5035398;28;20197;-76
2021/04/02 10:25:48;;;;;;;9.30;2.97;;;9.60;99.90;;;9.70;64.20;101589.31;5040561;28;20196;-75
2021/04/02 10:28:15;;;;;;;7.93;2.72;;;9.70;99.90;;;9.78;63.75;101585.66;5038673;28;20196;-72
2021/04/02 10:30:42;;;;;;;7.40;2.58;;;9.80;99.90;;;9.88;63.03;101586.31;5045279;28;20215;-74
2021/04/02 10:33:09;;;;;;;5.95;1.92;;;9.90;99.90;;;9.94;61.99;101588.81;5066655;28;20199;-75
2021/04/02 10:35:36;;;;;;;6.85;2.38;;;9.90;99.90;;;10.06;61.43;101589.41;5050837;28;20200;-74